Time;durP1;ratioP1;P1;durP2;ratioP2;P2;SDS_P1;SDS_P2;PMS_P1;PMS_P2;Temp;Humidity;BMP_temperature;BMP_pressure;BME280_temperature;BME280_humidity;BME280_pressure;Samples;Min_cycle;Max_cycle;Signal;HPM_P1;HPM_P2
2024/02/27 00:31:00;;;;;;;0.08;0.08;;;;;;;;;;5069721;28;20049;-93
2024/02/27 00:33:27;;;;;;;0.10;0.10;;;;;;;;;;5055762;28;20029;-93
2024/02/27 00:35:54;;;;;;;0.10;0.10;;;;;;;;;;5055067;28;20079;-93
2024/02/27 00:38:23;;;;;;;0.10;0.10;;;;;;;;;;5036778;28;20040;-94
2024/02/27 00:40:49;;;;;;;0.10;0.10;;;;;;;;;;5052459;28;20025;-93
2024/02/27 00:50:54;;;;;;;0.05;0.05;;;;;;;;;;5046431;28;20071;-88
2024/02/27 00:53:21;;;;;;;0.10;0.10;;;;;;;;;;5029532;28;20032;-88
2024/02/27 00:55:47;;;;;;;0.03;0.03;;;;;;;;;;5031238;28;20033;-89
2024/02/27 00:58:13;;;;;;;0.00;0.00;;;;;;;;;;5030395;28;20021;-88
2024/02/27 01:00:39;;;;;;;0.10;0.10;;;;;;;;;;5031037;28;20137;-88
2024/02/27 01:03:05;;;;;;;0.10;0.10;;;;;;;;;;5047156;28;20064;-88
2024/02/27 01:05:30;;;;;;;0.00;0.00;;;5.30;99.90;;;;;;5034808;28;20044;-88
2024/02/27 01:07:56;;;;;;;0.10;0.10;;;;;;;;;;5037013;28;20041;-88
2024/02/27 01:10:22;;;;;;;0.10;0.10;;;;;;;;;;5051181;28;20037;-89
2024/02/27 01:12:48;;;;;;;0.10;0.10;;;5.30;99.90;;;;;;5034171;28;20029;-89
2024/02/27 01:15:14;;;;;;;0.00;0.00;;;;;;;;;;5029910;28;20033;-87
2024/02/27 01:17:40;;;;;;;0.10;0.10;;;;;;;;;;5044658;28;20022;-88
2024/02/27 01:20:06;;;;;;;0.10;0.10;;;;;;;;;;5035936;28;20558;-87
2024/02/27 01:22:33;;;;;;;0.10;0.10;;;;;;;;;;5030000;28;20029;-87
2024/02/27 01:24:59;;;;;;;0.10;0.10;;;5.50;99.90;;;;;;5033338;28;20556;-89
2024/02/27 01:27:26;;;;;;;0.10;0.10;;;5.30;99.90;;;;;;5036242;28;20033;-89
2024/02/27 01:29:53;;;;;;;0.10;0.10;;;5.30;99.90;;;;;;5034049;28;20036;-88
2024/02/27 01:32:19;;;;;;;0.00;0.00;;;;;;;;;;5032899;28;20120;-88
2024/02/27 01:34:45;;;;;;;0.00;0.00;;;;;;;;;;5048215;28;20147;-86
2024/02/27 01:37:11;;;;;;;0.08;0.08;;;;;;;;;;5031756;28;20121;-88
2024/02/27 01:39:37;;;;;;;0.10;0.10;;;;;;;;;;5034928;28;20056;-88
2024/02/27 01:42:03;;;;;;;0.00;0.00;;;;;;;;;;5034535;28;20029;-87
2024/02/27 01:44:29;;;;;;;0.10;0.10;;;;;;;;;;5033925;28;20040;-88
2024/02/27 01:46:56;;;;;;;0.10;0.10;;;5.30;99.90;;;;;;5030558;28;20037;-88
2024/02/27 01:49:22;;;;;;;0.00;0.00;;;;;;;;;;5032799;28;20164;-88
2024/02/27 01:51:49;;;;;;;0.10;0.10;;;5.30;99.90;;;;;;5034202;28;20601;-88
2024/02/27 01:54:19;;;;;;;0.10;0.10;;;5.00;99.90;;;;;;5033586;28;20037;-88
2024/02/27 01:56:45;;;;;;;0.05;0.05;;;;;;;;;;5033280;28;20075;-88
2024/02/27 01:59:12;;;;;;;0.10;0.10;;;4.80;99.90;;;;;;5032164;28;20086;-87
2024/02/27 02:01:38;;;;;;;0.10;0.10;;;;;;;;;;5050482;28;20081;-88
2024/02/27 02:04:07;;;;;;;0.03;0.03;;;4.80;99.90;;;;;;5032216;28;20132;-88
2024/02/27 02:06:33;;;;;;;0.10;0.10;;;5.00;99.90;;;;;;5032766;28;20032;-88
2024/02/27 02:09:00;;;;;;;0.10;0.10;;;;;;;;;;5035192;28;20036;-88
2024/02/27 02:11:26;;;;;;;0.10;0.10;;;;;;;;;;5048806;28;20021;-88
2024/02/27 02:13:52;;;;;;;0.10;0.10;;;;;;;;;;5028014;28;20174;-88
2024/02/27 02:16:18;;;;;;;0.08;0.08;;;;;;;;;;5024676;28;20120;-88
2024/02/27 02:18:44;;;;;;;0.05;0.05;;;;;;;;;;5048989;28;20021;-87
2024/02/27 02:21:09;;;;;;;0.00;0.00;;;;;;;;;;5033014;28;20040;-88
2024/02/27 02:23:35;;;;;;;0.10;0.10;;;;;;;;;;5033817;28;20032;-87
2024/02/27 02:26:02;;;;;;;0.00;0.00;;;;;;;;;;5033241;28;20033;-88
2024/02/27 02:28:28;;;;;;;0.00;0.00;;;;;;;;;;5033939;28;20403;-88
2024/02/27 02:30:54;;;;;;;0.10;0.10;;;;;;;;;;5029647;28;20037;-88
2024/02/27 02:33:20;;;;;;;0.00;0.00;;;;;;;;;;5034455;28;20029;-88
2024/02/27 02:35:46;;;;;;;0.10;0.10;;;;;;;;;;5034241;28;20025;-88
2024/02/27 02:38:12;;;;;;;0.00;0.00;;;;;;;;;;5035987;28;20033;-88
2024/02/27 02:40:38;;;;;;;0.10;0.10;;;;;;;;;;5029867;28;20025;-87
2024/02/27 02:43:04;;;;;;;0.10;0.10;;;;;;;;;;5030917;28;20458;-88
2024/02/27 02:45:30;;;;;;;0.00;0.00;;;;;;;;;;5030071;28;20105;-88
2024/02/27 02:47:57;;;;;;;0.00;0.00;;;;;;;;;;5028055;28;20033;-88
2024/02/27 02:50:23;;;;;;;0.03;0.03;;;;;;;;;;5030285;28;20039;-89
2024/02/27 02:52:48;;;;;;;0.10;0.10;;;;;;;;;;5029706;28;20116;-88
2024/02/27 02:55:15;;;;;;;0.10;0.10;;;;;;;;;;5033149;28;20110;-87
2024/02/27 02:57:41;;;;;;;0.10;0.10;;;;;;;;;;5028495;28;20037;-87
2024/02/27 03:00:08;;;;;;;0.00;0.00;;;;;;;;;;5032288;28;20025;-88
2024/02/27 03:02:34;;;;;;;0.00;0.00;;;;;;;;;;5047336;28;20045;-87
2024/02/27 03:05:00;;;;;;;0.10;0.10;;;;;;;;;;5033667;28;20070;-89
2024/02/27 03:07:26;;;;;;;0.10;0.10;;;;;;;;;;5032481;28;20067;-87
2024/02/27 03:09:52;;;;;;;0.10;0.10;;;;;;;;;;5032484;28;20053;-87
2024/02/27 03:12:18;;;;;;;0.00;0.00;;;;;;;;;;5033490;28;20375;-88
2024/02/27 03:14:45;;;;;;;0.10;0.10;;;;;;;;;;5029064;28;20029;-88
2024/02/27 03:17:15;;;;;;;0.00;0.00;;;4.90;99.90;;;;;;5046240;28;20051;-88
2024/02/27 03:19:41;;;;;;;0.10;0.10;;;;;;;;;;5033073;28;20056;-87
2024/02/27 03:22:08;;;;;;;0.10;0.10;;;;;;;;;;5047551;28;20036;-87
2024/02/27 03:24:33;;;;;;;0.10;0.10;;;4.90;99.90;;;;;;5049619;28;20081;-88
2024/02/27 03:26:59;;;;;;;0.00;0.00;;;;;;;;;;5048776;28;20033;-88
2024/02/27 03:29:25;;;;;;;0.10;0.10;;;4.90;99.90;;;;;;5048974;28;20025;-88
2024/02/27 03:31:51;;;;;;;0.10;0.10;;;;;;;;;;5047802;28;20033;-88
2024/02/27 03:34:17;;;;;;;0.10;0.10;;;;;;;;;;5033141;28;20039;-88
2024/02/27 03:36:43;;;;;;;0.10;0.10;;;;;;;;;;5033687;28;20471;-87
2024/02/27 03:39:09;;;;;;;0.10;0.10;;;;;;;;;;5050071;28;20047;-88
2024/02/27 03:41:35;;;;;;;0.10;0.10;;;;;;;;;;5049585;28;20033;-88
2024/02/27 03:44:01;;;;;;;0.10;0.10;;;4.80;99.90;;;;;;5033337;28;20077;-88
2024/02/27 03:46:27;;;;;;;0.10;0.10;;;;;;;;;;5029120;28;20029;-89
2024/02/27 03:48:52;;;;;;;0.10;0.10;;;4.80;99.90;;;;;;5032180;28;20029;-88
2024/02/27 03:51:18;;;;;;;0.08;0.08;;;;;;;;;;5050532;28;20036;-88
2024/02/27 03:53:44;;;;;;;0.00;0.00;;;;;;;;;;5031597;28;20039;-88
2024/02/27 03:56:10;;;;;;;0.10;0.10;;;;;;;;;;5032335;28;20041;-88
2024/02/27 03:58:37;;;;;;;0.10;0.10;;;;;;;;;;5029276;28;20044;-87
2024/02/27 04:01:03;;;;;;;0.10;0.10;;;;;;;;;;5030959;28;20399;-87
2024/02/27 04:03:29;;;;;;;0.08;0.08;;;;;;;;;;5030414;28;20443;-88
2024/02/27 04:05:55;;;;;;;0.10;0.10;;;;;;;;;;5031792;28;20035;-88
2024/02/27 04:08:21;;;;;;;0.10;0.10;;;;;;;;;;5031735;28;20033;-88
2024/02/27 04:10:47;;;;;;;0.10;0.10;;;;;;;;;;5032831;28;20471;-88
2024/02/27 04:13:13;;;;;;;0.10;0.10;;;;;;;;;;5030964;28;20120;-88
2024/02/27 04:15:39;;;;;;;0.10;0.10;;;;;;;;;;5030208;28;20374;-88
2024/02/27 04:18:05;;;;;;;0.10;0.10;;;;;;;;;;5025630;28;20633;-88
2024/02/27 04:20:31;;;;;;;0.10;0.10;;;;;;;;;;5029412;28;20061;-88
2024/02/27 04:22:57;;;;;;;0.10;0.10;;;;;;;;;;5029545;28;20025;-87
2024/02/27 04:25:23;;;;;;;0.10;0.10;;;;;;;;;;5032766;28;20091;-87
2024/02/27 04:27:49;;;;;;;0.10;0.10;;;;;;;;;;5030272;28;20037;-88
2024/02/27 04:30:15;;;;;;;0.10;0.10;;;;;;;;;;5032644;28;20753;-87
2024/02/27 04:32:41;;;;;;;0.10;0.10;;;;;;;;;;5030464;28;20119;-88
2024/02/27 04:35:07;;;;;;;0.00;0.00;;;5.00;99.90;;;;;;5031534;28;20032;-88
2024/02/27 04:37:33;;;;;;;0.10;0.10;;;;;;;;;;5029117;28;20036;-87
2024/02/27 04:39:59;;;;;;;0.10;0.10;;;;;;;;;;5034933;28;20303;-87
2024/02/27 04:42:25;;;;;;;0.03;0.03;;;;;;;;;;5035010;28;20125;-88
2024/02/27 04:44:51;;;;;;;0.10;0.10;;;;;;;;;;5034889;28;20029;-88
2024/02/27 04:47:17;;;;;;;0.10;0.10;;;;;;;;;;5033262;28;20407;-87
2024/02/27 04:49:43;;;;;;;0.10;0.10;;;;;;;;;;5034722;28;20060;-88
2024/02/27 04:52:09;;;;;;;0.10;0.10;;;;;;;;;;5033941;28;20548;-87
2024/02/27 04:54:37;;;;;;;0.10;0.10;;;4.40;99.90;;;;;;5033560;28;20063;-88
2024/02/27 04:57:03;;;;;;;0.10;0.10;;;;;;;;;;5035723;28;20065;-88
2024/02/27 04:59:29;;;;;;;0.00;0.00;;;;;;;;;;5032272;28;20118;-88
2024/02/27 05:01:55;;;;;;;0.10;0.10;;;4.70;99.90;;;;;;5035194;28;20402;-88
2024/02/27 05:04:21;;;;;;;0.10;0.10;;;;;;;;;;5050367;28;20607;-88
2024/02/27 05:06:47;;;;;;;0.10;0.10;;;;;;;;;;5032578;28;20124;-87
2024/02/27 05:09:12;;;;;;;0.10;0.10;;;4.40;99.90;;;;;;5053451;28;20037;-88
2024/02/27 05:11:38;;;;;;;0.10;0.10;;;;;;;;;;5034990;28;20067;-88
2024/02/27 05:14:04;;;;;;;0.10;0.10;;;;;;;;;;5037025;28;20261;-87
2024/02/27 05:16:30;;;;;;;0.10;0.10;;;;;;;;;;5048026;28;20444;-88
2024/02/27 05:18:56;;;;;;;0.10;0.10;;;;;;;;;;5035321;28;20107;-88
2024/02/27 05:21:22;;;;;;;0.05;0.05;;;;;;;;;;5036763;28;20029;-87
2024/02/27 05:23:48;;;;;;;0.10;0.10;;;4.00;99.90;;;;;;5036580;28;20029;-88
2024/02/27 05:26:15;;;;;;;0.00;0.00;;;4.30;99.90;;;;;;5034048;28;20090;-87
2024/02/27 05:28:41;;;;;;;0.10;0.10;;;;;;;;;;5052585;28;20058;-88
2024/02/27 05:31:25;;;;;;;0.00;0.00;;;4.20;99.90;;;;;;5033820;28;20441;-88
2024/02/27 05:33:52;;;;;;;0.10;0.10;;;4.30;99.90;;;;;;5034655;28;20037;-87
2024/02/27 05:36:18;;;;;;;0.10;0.10;;;;;;;;;;5050216;28;20036;-88
2024/02/27 05:38:44;;;;;;;0.00;0.00;;;;;;;;;;5049754;28;20033;-88
2024/02/27 05:41:10;;;;;;;0.10;0.10;;;;;;;;;;5036594;28;20131;-88
2024/02/27 05:43:36;;;;;;;0.00;0.00;;;;;;;;;;5052248;28;20072;-88
2024/02/27 05:46:06;;;;;;;0.05;0.05;;;;;;;;;;5030822;28;20165;-88
2024/02/27 05:48:33;;;;;;;0.10;0.10;;;4.20;99.90;;;;;;5034859;28;20079;-87
2024/02/27 05:50:59;;;;;;;0.08;0.08;;;;;;;;;;5052901;28;20053;-87
2024/02/27 05:53:24;;;;;;;0.10;0.10;;;;;;;;;;5055791;28;20074;-88
2024/02/27 05:55:50;;;;;;;0.03;0.03;;;;;;;;;;5033907;28;20114;-87
2024/02/27 05:58:16;;;;;;;0.00;0.00;;;;;;;;;;5049690;28;20039;-87
2024/02/27 06:00:42;;;;;;;0.10;0.10;;;;;;;;;;5037500;28;20033;-87
2024/02/27 06:03:11;;;;;;;0.00;0.00;;;;;;;;;;5053982;28;20029;-87
2024/02/27 06:05:37;;;;;;;0.00;0.00;;;;;;;;;;5054652;28;20537;-87
2024/02/27 06:08:03;;;;;;;0.10;0.10;;;;;;;;;;5054845;28;20040;-87
2024/02/27 06:10:29;;;;;;;0.00;0.00;;;;;;;;;;5053843;28;20028;-88
2024/02/27 06:12:55;;;;;;;0.10;0.10;;;;;;;;;;5053955;28;20120;-88
2024/02/27 06:15:21;;;;;;;0.10;0.10;;;;;;;;;;5033253;28;20021;-87
2024/02/27 06:17:47;;;;;;;0.10;0.10;;;;;;;;;;5035497;28;20024;-88
2024/02/27 06:22:57;;;;;;;0.00;0.00;;;;;;;;;;5051663;28;20055;-87
2024/02/27 06:25:23;;;;;;;0.10;0.10;;;;;;;;;;5035554;28;20551;-87
2024/02/27 06:27:49;;;;;;;0.10;0.10;;;;;;;;;;5033833;28;20112;-88
2024/02/27 06:30:15;;;;;;;0.10;0.10;;;4.70;99.90;;;;;;5037233;28;20028;-88
2024/02/27 06:32:41;;;;;;;0.00;0.00;;;;;;;;;;5035751;28;20029;-88
2024/02/27 06:35:09;;;;;;;0.00;0.00;;;;;;;;;;5031692;28;20189;-88
2024/02/27 06:37:35;;;;;;;0.00;0.00;;;;;;;;;;5034365;28;20028;-88
2024/02/27 06:40:01;;;;;;;0.10;0.10;;;;;;;;;;5034893;28;20167;-89
2024/02/27 06:42:27;;;;;;;0.00;0.00;;;;;;;;;;5035168;28;20036;-89
2024/02/27 06:44:53;;;;;;;0.10;0.10;;;;;;;;;;5034959;28;20029;-88
2024/02/27 06:47:19;;;;;;;0.10;0.10;;;;;;;;;;5054207;28;20022;-88
2024/02/27 09:19:57;;;;;;;0.10;0.10;;;;;;;;;;5068423;28;20048;-94
2024/02/27 09:22:26;;;;;;;0.10;0.10;;;;;;;;;;5037454;28;20017;-93
2024/02/27 09:25:01;;;;;;;0.10;0.10;;;;;;;;;;5046114;28;20097;-92
2024/02/27 09:27:27;;;;;;;0.00;0.00;;;;;;;;;;5063150;28;20115;-94
2024/02/27 09:29:59;;;;;;;0.08;0.08;;;;;;;;;;5058255;28;20093;-94
2024/02/27 11:51:25;;;;;;;0.10;0.10;;;8.50;99.90;;;;;;5063562;28;20048;-88
2024/02/27 11:53:51;;;;;;;0.10;0.10;;;;;;;;;;5033084;28;20075;-90
2024/02/27 11:56:20;;;;;;;0.00;0.00;;;;;;;;;;5027738;28;20491;-92
2024/02/27 11:58:46;;;;;;;0.10;0.10;;;;;;;;;;5027942;28;20018;-91
2024/02/27 12:01:16;;;;;;;0.10;0.10;;;8.60;99.90;;;;;;5026432;28;20117;-90
2024/02/27 12:03:45;;;;;;;;;;;12.50;99.90;;;;;;5027510;28;20023;-89
2024/02/27 12:06:12;;;;;;;0.10;0.10;;;;;;;;;;5026624;28;19905;-92
2024/02/27 12:08:47;;;;;;;0.10;0.10;;;8.80;99.90;;;;;;5028360;28;20472;-94
2024/02/27 12:11:16;;;;;;;0.10;0.10;;;8.80;99.90;;;;;;5021060;28;20036;-93
2024/02/27 12:13:45;;;;;;;0.00;0.00;;;8.80;99.90;;;;;;5028187;28;20045;-91
2024/02/27 12:16:11;;;;;;;0.00;0.00;;;;;;;;;;5030421;28;20025;-91
2024/02/27 12:18:37;;;;;;;0.10;0.10;;;;;;;;;;5027046;28;20025;-92
2024/02/27 12:21:03;;;;;;;0.10;0.10;;;;;;;;;;5023576;28;20035;-89
2024/02/27 12:23:32;;;;;;;0.00;0.00;;;;;;;;;;5025556;28;20047;-89
2024/02/27 12:25:58;;;;;;;0.10;0.10;;;;;;;;;;5021876;28;20026;-90
2024/02/27 12:28:25;;;;;;;0.10;0.10;;;8.90;99.90;;;;;;5029336;28;20034;-90
2024/02/27 12:30:51;;;;;;;0.00;0.00;;;;;;;;;;5025281;28;20045;-91
2024/02/27 12:33:17;;;;;;;0.08;0.08;;;;;;;;;;5025662;28;20037;-91
2024/02/27 12:39:28;;;;;;;0.10;0.10;;;8.80;99.90;;;;;;5006837;28;20418;-90
2024/02/27 12:41:55;;;;;;;0.10;0.10;;;;;;;;;;4978967;28;20041;-91
2024/02/27 12:44:21;;;;;;;0.10;0.10;;;;;;;;;;5021614;28;20029;-92
2024/02/27 12:46:49;;;;;;;0.10;0.10;;;;;;;;;;5026202;28;20040;-90
2024/02/27 12:49:47;;;;;;;0.00;0.00;;;8.30;99.90;;;;;;5042757;28;20067;-91
2024/02/27 12:52:16;;;;;;;0.10;0.10;;;8.10;99.90;;;;;;5026065;28;20036;-91
2024/02/27 12:54:53;;;;;;;0.10;0.10;;;7.90;99.90;;;;;;5010149;28;20033;-92
2024/02/27 12:57:19;;;;;;;0.10;0.10;;;;;;;;;;5021466;28;20419;-96
2024/02/27 12:59:45;;;;;;;0.10;0.10;;;;;;;;;;5041022;28;20025;-91
2024/02/27 13:02:11;;;;;;;0.10;0.10;;;;;;;;;;5027396;28;20037;-92
2024/02/27 13:04:41;;;;;;;0.10;0.10;;;7.90;99.90;;;;;;5029052;28;20027;-90
2024/02/27 13:07:09;;;;;;;0.10;0.10;;;8.00;99.90;;;;;;5030401;28;20029;-90
2024/02/27 13:09:35;;;;;;;0.10;0.10;;;;;;;;;;5026929;28;20760;-94
2024/02/27 13:12:08;;;;;;;0.10;0.10;;;8.00;99.90;;;;;;5027101;28;20040;-92
2024/02/27 13:14:34;;;;;;;0.10;0.10;;;;;;;;;;5039478;28;20034;-90
2024/02/27 13:17:00;;;;;;;0.10;0.10;;;;;;;;;;5022122;28;20206;-93
2024/02/27 13:19:26;;;;;;;0.10;0.10;;;;;;;;;;5045426;28;20024;-92
2024/02/27 13:21:59;;;;;;;0.10;0.10;;;8.00;99.90;;;;;;5029678;28;20056;-90
2024/02/27 13:24:25;;;;;;;0.10;0.10;;;;;;;;;;5028229;28;20071;-95
2024/02/27 13:27:17;;;;;;;0.10;0.10;;;8.20;99.90;;;;;;5045722;28;20033;-94
2024/02/27 13:29:43;;;;;;;0.10;0.10;;;;;;;;;;5026352;28;20251;-94
2024/02/27 13:32:09;;;;;;;0.10;0.10;;;;;;;;;;5039107;28;20381;-89
2024/02/27 13:34:37;;;;;;;0.10;0.10;;;;;;;;;;5036655;28;20103;-90
2024/02/27 13:37:14;;;;;;;0.10;0.10;;;;;;;;;;5018257;28;20515;-89
2024/02/27 13:39:40;;;;;;;0.10;0.10;;;;;;;;;;5038979;28;20325;-91
2024/02/27 13:42:06;;;;;;;0.10;0.10;;;;;;;;;;5040056;28;20010;-88
2024/02/27 13:44:37;;;;;;;0.10;0.10;;;8.60;99.90;;;;;;5025341;28;20075;-92
2024/02/27 13:47:27;;;;;;;0.10;0.10;;;;;;;;;;5024170;28;20030;-90
2024/02/27 13:49:53;;;;;;;0.08;0.08;;;;;;;;;;5040977;28;20029;-90
2024/02/27 13:52:42;;;;;;;0.10;0.10;;;8.60;99.90;;;;;;5038593;28;20025;-91
2024/02/27 13:55:11;;;;;;;0.10;0.10;;;8.70;99.90;;;;;;5026667;28;20056;-92
2024/02/27 14:01:08;;;;;;;0.10;0.10;;;;;;;;;;5044232;28;20096;-94
2024/02/27 14:29:26;;;;;;;0.08;0.08;;;;;;;;;;5139085;23;20277;-87
2024/02/27 14:31:52;;;;;;;0.10;0.10;;;;;;;;;;5028188;28;20029;-92
2024/02/27 14:34:19;;;;;;;0.10;0.10;;;;;;;;;;5029041;28;20052;-90
2024/02/27 14:36:45;;;;;;;0.10;0.10;;;;;;;;;;5031493;28;20033;-89
2024/02/27 14:39:12;;;;;;;0.00;0.00;;;;;;;;;;5029094;28;20239;-89
2024/02/27 14:41:37;;;;;;;0.10;0.10;;;;;;;;;;5028194;28;20024;-90
2024/02/27 14:44:04;;;;;;;0.10;0.10;;;;;;;;;;5029352;28;20061;-90
2024/02/27 14:46:30;;;;;;;0.10;0.10;;;;;;;;;;5027548;28;20022;-91
2024/02/27 14:48:56;;;;;;;0.10;0.10;;;;;;;;;;5026113;28;20040;-95
2024/02/27 14:51:22;;;;;;;0.00;0.00;;;;;;;;;;5028515;28;20044;-95
2024/02/27 14:53:48;;;;;;;0.10;0.10;;;;;;;;;;5041065;28;20487;-94
2024/02/27 14:56:14;;;;;;;0.10;0.10;;;;;;;;;;5023325;28;20037;-94
2024/02/27 14:58:41;;;;;;;0.10;0.10;;;;;;;;;;5027290;28;20056;-92
2024/02/27 15:01:07;;;;;;;0.03;0.03;;;;;;;;;;5029050;28;20033;-92
2024/02/27 15:03:33;;;;;;;0.00;0.00;;;;;;;;;;5027515;28;20033;-91
2024/02/27 15:05:59;;;;;;;0.10;0.10;;;;;;;;;;5024431;28;20018;-91
2024/02/27 15:08:25;;;;;;;0.10;0.10;;;;;;;;;;5027094;28;20412;-91
2024/02/27 15:10:51;;;;;;;0.10;0.10;;;;;;;;;;5030170;28;20035;-92
2024/02/27 15:13:17;;;;;;;0.10;0.10;;;;;;;;;;5029265;28;20032;-92
2024/02/27 15:15:43;;;;;;;0.10;0.10;;;;;;;;;;5029353;28;20034;-91
2024/02/27 15:18:09;;;;;;;0.10;0.10;;;;;;;;;;5028818;28;20033;-91
2024/02/27 15:20:35;;;;;;;0.10;0.10;;;;;;;;;;5027155;28;20040;-91
2024/02/27 15:23:01;;;;;;;0.10;0.10;;;;;;;;;;5027854;28;20431;-91
2024/02/27 15:25:27;;;;;;;0.03;0.03;;;;;;;;;;5026382;28;20013;-89
2024/02/27 15:27:55;;;;;;;0.10;0.10;;;;;;;;;;5031016;28;20068;-91
2024/02/27 15:30:21;;;;;;;0.10;0.10;;;;;;;;;;5030601;28;20097;-91
2024/02/27 15:32:47;;;;;;;0.10;0.10;;;;;;;;;;5026566;28;20041;-90
2024/02/27 15:35:13;;;;;;;0.08;0.08;;;;;;;;;;5030423;28;20068;-95
2024/02/27 15:37:39;;;;;;;0.10;0.10;;;;;;;;;;5030487;28;20029;-91
2024/02/27 15:40:06;;;;;;;0.00;0.00;;;;;;;;;;5032872;28;20160;-92
2024/02/27 15:42:32;;;;;;;0.10;0.10;;;;;;;;;;5029826;28;20033;-93
2024/02/27 15:44:58;;;;;;;0.10;0.10;;;;;;;;;;5020429;28;20036;-90
2024/02/27 15:47:28;;;;;;;0.00;0.00;;;7.90;99.90;;;;;;5022070;28;20041;-91
2024/02/27 15:49:54;;;;;;;0.10;0.10;;;;;;;;;;5023914;28;20030;-90
2024/02/27 15:52:55;;;;;;;0.10;0.10;;;7.90;99.90;;;;;;5022163;28;20467;-91
2024/02/27 15:55:21;;;;;;;0.00;0.00;;;;;;;;;;4935406;28;20059;-91
2024/02/27 15:57:47;;;;;;;0.10;0.10;;;;;;;;;;5024822;28;20033;-92
2024/02/27 16:00:14;;;;;;;0.00;0.00;;;;;;;;;;5019545;28;20021;-92
2024/02/27 16:02:40;;;;;;;0.10;0.10;;;;;;;;;;5020952;28;20029;-91
2024/02/27 16:05:10;;;;;;;0.00;0.00;;;7.40;99.90;;;;;;5023597;28;20034;-91
2024/02/27 16:07:48;;;;;;;0.00;0.00;;;7.40;99.90;;;;;;5020073;28;20033;-90
2024/02/27 16:10:15;;;;;;;0.10;0.10;;;;;;;;;;5024451;28;20037;-91
2024/02/27 16:12:41;;;;;;;0.10;0.10;;;;;;;;;;5022919;28;20033;-91
2024/02/27 16:15:08;;;;;;;0.10;0.10;;;;;;;;;;5025652;28;20038;-93
2024/02/27 16:17:36;;;;;;;0.10;0.10;;;;;;;;;;5022858;28;20022;-91
2024/02/27 16:20:03;;;;;;;0.05;0.05;;;;;;;;;;5025400;28;20029;-92
2024/02/27 16:22:29;;;;;;;0.10;0.10;;;;;;;;;;5020055;28;20515;-93
2024/02/27 16:24:55;;;;;;;0.10;0.10;;;;;;;;;;5015452;28;20029;-91
2024/02/27 16:27:21;;;;;;;0.10;0.10;;;;;;;;;;5022131;28;20061;-91
2024/02/27 16:29:47;;;;;;;0.10;0.10;;;;;;;;;;5021169;28;20096;-93
2024/02/27 16:32:13;;;;;;;0.00;0.00;;;;;;;;;;5019130;28;20060;-93
2024/02/27 16:34:39;;;;;;;0.10;0.10;;;;;;;;;;5021044;28;20034;-91
2024/02/27 16:37:06;;;;;;;0.10;0.10;;;;;;;;;;5025170;28;20030;-91
2024/02/27 16:40:06;;;;;;;0.10;0.10;;;;;;;;;;5028283;28;20043;-93
2024/02/27 16:42:27;;;;;;;0.10;0.10;;;;;;;;;;5044812;28;20040;-90
2024/02/27 16:45:52;;;;;;;0.10;0.10;;;6.50;99.90;;;;;;5028374;28;20022;-89
2024/02/27 16:49:03;;;;;;;0.10;0.10;;;6.40;99.90;;;;;;4951183;28;20249;-92
2024/02/27 16:51:29;;;;;;;0.10;0.10;;;;;;;;;;4935049;29;20348;-91
2024/02/27 16:53:55;;;;;;;0.10;0.10;;;;;;;;;;5022075;28;20052;-91
2024/02/27 16:56:20;;;;;;;0.10;0.10;;;;;;;;;;5039760;28;20460;-89
2024/02/27 16:58:46;;;;;;;0.10;0.10;;;;;;;;;;5024520;28;20025;-92
2024/02/27 17:01:12;;;;;;;0.10;0.10;;;;;;;;;;5019940;28;20022;-92
2024/02/27 17:03:40;;;;;;;0.10;0.10;;;;;;;;;;5025906;28;20034;-91
2024/02/27 17:06:06;;;;;;;0.10;0.10;;;;;;;;;;5027871;28;20038;-91
2024/02/27 17:08:32;;;;;;;0.10;0.10;;;;;;;;;;5025954;28;20048;-90
2024/02/27 17:10:59;;;;;;;0.10;0.10;;;;;;;;;;5025019;28;20021;-91
2024/02/27 17:13:25;;;;;;;0.10;0.10;;;;;;;;;;5027860;28;20021;-93
2024/02/27 17:15:51;;;;;;;0.10;0.10;;;;;;;;;;5023179;28;20033;-91
2024/02/27 17:18:17;;;;;;;0.10;0.10;;;;;;;;;;5023971;28;20021;-91
2024/02/27 17:20:43;;;;;;;0.10;0.10;;;;;;;;;;5025856;28;20025;-94
2024/02/27 17:23:15;;;;;;;0.10;0.10;;;;;;;;;;5025417;28;20040;-91
2024/02/27 17:25:41;;;;;;;0.10;0.10;;;;;;;;;;5024353;28;20041;-92
2024/02/27 17:28:07;;;;;;;0.10;0.10;;;;;;;;;;5024518;28;20029;-91
2024/02/27 17:30:33;;;;;;;0.00;0.00;;;;;;;;;;5025998;28;20033;-91
2024/02/27 17:32:59;;;;;;;0.10;0.10;;;;;;;;;;5026008;28;20025;-91
2024/02/27 17:35:25;;;;;;;0.10;0.10;;;;;;;;;;5030168;28;20111;-94
2024/02/27 17:37:51;;;;;;;0.10;0.10;;;;;;;;;;5027057;28;20044;-91
2024/02/27 17:40:17;;;;;;;0.10;0.10;;;;;;;;;;5026416;28;20053;-93
2024/02/27 17:42:43;;;;;;;0.10;0.10;;;;;;;;;;5026739;28;20025;-93
2024/02/27 17:45:09;;;;;;;0.10;0.10;;;;;;;;;;5024757;28;20033;-89
2024/02/27 17:47:35;;;;;;;0.10;0.10;;;;;;;;;;5042221;28;20124;-93
2024/02/27 17:50:02;;;;;;;0.10;0.10;;;;;;;;;;5022836;28;20021;-91
2024/02/27 17:52:29;;;;;;;0.10;0.10;;;;;;;;;;5027429;28;20037;-93
2024/02/27 17:54:56;;;;;;;0.10;0.10;;;;;;;;;;5026620;28;20044;-93
2024/02/27 17:57:22;;;;;;;0.10;0.10;;;;;;;;;;5024871;28;20021;-92
2024/02/27 17:59:48;;;;;;;0.10;0.10;;;;;;;;;;5023338;28;20052;-91
2024/02/27 18:02:14;;;;;;;0.10;0.10;;;;;;;;;;5024592;28;20030;-91
2024/02/27 18:04:40;;;;;;;0.10;0.10;;;;;;;;;;5022756;28;20091;-92
2024/02/27 18:07:07;;;;;;;0.10;0.10;;;;;;;;;;5005808;28;20064;-91
2024/02/27 18:09:33;;;;;;;0.10;0.10;;;;;;;;;;5005839;28;20107;-92
2024/02/27 18:11:59;;;;;;;0.10;0.10;;;;;;;;;;5007625;28;20033;-96
2024/02/27 18:14:25;;;;;;;0.10;0.10;;;;;;;;;;5024835;28;20476;-95
2024/02/27 18:16:51;;;;;;;0.10;0.10;;;;;;;;;;5008304;28;20214;-92
2024/02/27 18:19:17;;;;;;;0.10;0.10;;;;;;;;;;5013553;28;20099;-90
2024/02/27 18:21:43;;;;;;;0.10;0.10;;;;;;;;;;5018938;28;20026;-92
2024/02/27 18:24:10;;;;;;;0.10;0.10;;;;;;;;;;5024027;28;20051;-91
2024/02/27 18:26:36;;;;;;;0.10;0.10;;;;;;;;;;5021467;28;20037;-92
2024/02/27 18:29:03;;;;;;;0.10;0.10;;;;;;;;;;5022509;28;20029;-91
2024/02/27 18:31:29;;;;;;;0.10;0.10;;;;;;;;;;5026626;28;20033;-91
2024/02/27 18:33:55;;;;;;;0.10;0.10;;;;;;;;;;5026317;28;20042;-92
2024/02/27 18:36:21;;;;;;;0.10;0.10;;;;;;;;;;5024026;28;20116;-93
2024/02/27 18:38:47;;;;;;;0.10;0.10;;;;;;;;;;5024413;28;20041;-90
2024/02/27 18:41:13;;;;;;;0.10;0.10;;;;;;;;;;5028492;28;20201;-91
2024/02/27 18:43:39;;;;;;;0.10;0.10;;;;;;;;;;5026132;28;20045;-93
2024/02/27 18:46:05;;;;;;;0.10;0.10;;;;;;;;;;5023464;28;20033;-92
2024/02/27 18:48:31;;;;;;;0.10;0.10;;;;;;;;;;5018327;28;20089;-92
2024/02/27 18:51:00;;;;;;;0.10;0.10;;;;;;;;;;5027700;28;20318;-92
2024/02/27 18:53:27;;;;;;;0.10;0.10;;;;;;;;;;5042851;28;20029;-90
2024/02/27 18:55:53;;;;;;;0.10;0.10;;;;;;;;;;5028578;28;20076;-92
2024/02/27 18:58:19;;;;;;;0.00;0.00;;;;;;;;;;5023774;28;20033;-90
2024/02/27 19:00:45;;;;;;;0.00;0.00;;;;;;;;;;5023738;28;20059;-92
2024/02/27 19:03:11;;;;;;;0.10;0.10;;;;;;;;;;5024999;28;20026;-91
2024/02/27 19:05:37;;;;;;;0.08;0.08;;;;;;;;;;5021703;28;20498;-93
2024/02/27 19:08:06;;;;;;;0.10;0.10;;;5.80;99.90;;;;;;5023599;28;20060;-91
2024/02/27 19:10:32;;;;;;;0.10;0.10;;;;;;;;;;5023115;28;20047;-88
2024/02/27 19:12:59;;;;;;;0.10;0.10;;;;;;;;;;5022856;28;20021;-89
2024/02/27 19:15:25;;;;;;;0.10;0.10;;;;;;;;;;5025711;28;20147;-91
2024/02/27 19:17:51;;;;;;;0.10;0.10;;;;;;;;;;5011731;28;20073;-90
2024/02/27 19:20:17;;;;;;;0.10;0.10;;;;;;;;;;5025249;28;20060;-92
2024/02/27 19:22:43;;;;;;;0.10;0.10;;;;;;;;;;5022967;28;20037;-90
2024/02/27 19:25:09;;;;;;;0.10;0.10;;;;;;;;;;5025356;28;20109;-91
2024/02/27 19:27:35;;;;;;;0.00;0.00;;;;;;;;;;5025289;28;20040;-91
2024/02/27 19:30:02;;;;;;;0.10;0.10;;;;;;;;;;5019247;28;20031;-90
2024/02/27 19:32:28;;;;;;;0.10;0.10;;;;;;;;;;5041922;28;20035;-93
2024/02/27 19:34:54;;;;;;;0.10;0.10;;;;;;;;;;5024918;28;20535;-91
2024/02/27 19:37:20;;;;;;;0.10;0.10;;;;;;;;;;5023425;28;20040;-90
2024/02/27 19:39:46;;;;;;;0.10;0.10;;;;;;;;;;5030364;28;20045;-87
2024/02/27 19:42:13;;;;;;;0.10;0.10;;;;;;;;;;5041312;28;20030;-90
2024/02/27 19:44:39;;;;;;;0.05;0.05;;;;;;;;;;5024383;28;20024;-90
2024/02/27 19:47:05;;;;;;;0.00;0.00;;;;;;;;;;5021397;28;20025;-91
2024/02/27 19:49:31;;;;;;;0.10;0.10;;;;;;;;;;5022679;28;20305;-90
2024/02/27 19:51:57;;;;;;;0.10;0.10;;;;;;;;;;5024974;28;20029;-93
2024/02/27 19:54:24;;;;;;;0.10;0.10;;;;;;;;;;5023754;28;20032;-92
2024/02/27 19:56:50;;;;;;;0.10;0.10;;;;;;;;;;5025767;28;20032;-90
2024/02/27 19:59:16;;;;;;;0.10;0.10;;;;;;;;;;5024854;28;20018;-91
2024/02/27 20:01:44;;;;;;;0.05;0.05;;;;;;;;;;5026470;28;20093;-92
2024/02/27 20:04:12;;;;;;;0.10;0.10;;;;;;;;;;5025255;28;20036;-92
2024/02/27 20:06:39;;;;;;;0.10;0.10;;;;;;;;;;5038622;28;20128;-88
2024/02/27 20:09:07;;;;;;;0.10;0.10;;;;;;;;;;5024723;28;20041;-95
2024/02/27 20:11:33;;;;;;;0.10;0.10;;;;;;;;;;5021116;28;20029;-91
2024/02/27 20:13:59;;;;;;;0.10;0.10;;;;;;;;;;5024951;28;20057;-93
2024/02/27 20:16:25;;;;;;;0.10;0.10;;;;;;;;;;5024528;28;20038;-96
2024/02/27 20:18:52;;;;;;;0.10;0.10;;;;;;;;;;5041429;28;20029;-91
2024/02/27 20:21:18;;;;;;;0.10;0.10;;;;;;;;;;5025654;28;20026;-91
2024/02/27 20:23:44;;;;;;;0.10;0.10;;;;;;;;;;5024599;28;20025;-96
2024/02/27 20:26:10;;;;;;;0.10;0.10;;;;;;;;;;5026052;28;20022;-94
2024/02/27 20:28:41;;;;;;;0.10;0.10;;;4.60;99.90;;;;;;5026760;28;20038;-92